Terminal Aerodrome Forecast
Issued by NWS Cleveland, OH

Home | Current Version | Previous Version | Graphics & Text | Print | Product List | Glossary On
Versions: 1 2 3 4 5 6 7 8 9 10 11 12 13 14 15 16 17 18 19 20 21 22
284
FTUS41 KCLE 092340
TAFERI
TAF
KERI 092340Z 1000/1024 26010G20KT 2SM -SN OVC008
      TEMPO 1000/1003 4SM -SN BR OVC012
     FM100300 25012G20KT 1SM -SN OVC010
      TEMPO 1004/1008 1/2SM SN OVC006
     FM101300 26010G20KT 5SM -SN OVC012=

USA.gov is the U.S. government's official web portal to all federal, state and local government web resources and services.